Columbus, Ohio
Traffic Map
Current Weather Conditions
Columbus, Ohio
Broken Clouds
Broken Clouds

Feels Like: 0°
Wind Chill: Ceiling: 3300
Heat Index: Visibility: 10mi
Dew Point: -3° Wind: 7mph
Humidity: 65% Direction: 270° (W)
Pressure: 30.13in Gusts: 0mph
Raw Report DataKCMH 252251Z 27006KT 10SM BKN033 03/M03 A3013 RMK AO2 SLP209 T00331028
Traffic Incident Summary
Active as of:
Severity:
Category:
InformationThere was an issue retrieving the traffic information for this location. Please try a different location or try again shortly.
Advertisements
Track Severe Weather on mobile